sensor_id;sensor_type;location;lat;lon;timestamp;temperature;humidity
33903;DHT22;20194;50.950;5.346;2023-02-02T00:01:52;8.50;45.70
33903;DHT22;20194;50.950;5.346;2023-02-02T00:04:23;8.50;44.50
33903;DHT22;20194;50.950;5.346;2023-02-02T00:06:49;8.40;45.40
33903;DHT22;20194;50.950;5.346;2023-02-02T00:09:16;8.40;45.80
33903;DHT22;20194;50.950;5.346;2023-02-02T00:11:43;8.50;45.90
33903;DHT22;20194;50.950;5.346;2023-02-02T00:14:10;8.40;45.10
33903;DHT22;20194;50.950;5.346;2023-02-02T00:16:41;8.50;44.50
33903;DHT22;20194;50.950;5.346;2023-02-02T00:19:16;8.50;44.80
33903;DHT22;20194;50.950;5.346;2023-02-02T00:21:43;8.40;45.40
33903;DHT22;20194;50.950;5.346;2023-02-02T00:24:11;8.50;44.00
33903;DHT22;20194;50.950;5.346;2023-02-02T00:26:38;8.50;44.20
33903;DHT22;20194;50.950;5.346;2023-02-02T00:29:06;8.50;44.60
33903;DHT22;20194;50.950;5.346;2023-02-02T00:31:33;8.40;44.50
33903;DHT22;20194;50.950;5.346;2023-02-02T00:33:58;8.40;46.10
33903;DHT22;20194;50.950;5.346;2023-02-02T00:36:25;8.40;46.90
33903;DHT22;20194;50.950;5.346;2023-02-02T00:38:50;8.30;46.90
33903;DHT22;20194;50.950;5.346;2023-02-02T00:41:17;8.40;47.50
33903;DHT22;20194;50.950;5.346;2023-02-02T00:43:43;8.30;47.40
33903;DHT22;20194;50.950;5.346;2023-02-02T00:46:17;8.30;48.30
33903;DHT22;20194;50.950;5.346;2023-02-02T00:48:43;8.30;47.90
33903;DHT22;20194;50.950;5.346;2023-02-02T00:51:09;8.50;45.70
33903;DHT22;20194;50.950;5.346;2023-02-02T00:53:35;8.50;44.20
33903;DHT22;20194;50.950;5.346;2023-02-02T00:56:00;8.50;44.20
33903;DHT22;20194;50.950;5.346;2023-02-02T00:58:26;8.40;44.90
33903;DHT22;20194;50.950;5.346;2023-02-02T01:00:52;8.40;45.90
33903;DHT22;20194;50.950;5.346;2023-02-02T01:03:18;8.40;45.30
33903;DHT22;20194;50.950;5.346;2023-02-02T01:05:43;8.40;45.50
33903;DHT22;20194;50.950;5.346;2023-02-02T01:08:09;8.40;46.40
33903;DHT22;20194;50.950;5.346;2023-02-02T01:10:35;8.40;45.00
33903;DHT22;20194;50.950;5.346;2023-02-02T01:13:01;8.50;45.00
33903;DHT22;20194;50.950;5.346;2023-02-02T01:15:26;8.50;44.50
33903;DHT22;20194;50.950;5.346;2023-02-02T01:17:54;8.50;44.30
33903;DHT22;20194;50.950;5.346;2023-02-02T01:20:20;8.50;44.30
33903;DHT22;20194;50.950;5.346;2023-02-02T01:22:46;8.50;44.10
33903;DHT22;20194;50.950;5.346;2023-02-02T01:25:12;8.50;43.80
33903;DHT22;20194;50.950;5.346;2023-02-02T01:27:38;8.60;44.20
33903;DHT22;20194;50.950;5.346;2023-02-02T01:30:05;8.60;43.20
33903;DHT22;20194;50.950;5.346;2023-02-02T01:32:31;8.50;43.30
33903;DHT22;20194;50.950;5.346;2023-02-02T01:34:57;8.60;43.60
33903;DHT22;20194;50.950;5.346;2023-02-02T01:37:23;8.50;43.10
33903;DHT22;20194;50.950;5.346;2023-02-02T01:39:49;8.50;43.40
33903;DHT22;20194;50.950;5.346;2023-02-02T01:42:19;8.60;43.60
33903;DHT22;20194;50.950;5.346;2023-02-02T01:47:46;8.50;43.00
33903;DHT22;20194;50.950;5.346;2023-02-02T01:50:15;8.50;44.20
33903;DHT22;20194;50.950;5.346;2023-02-02T01:52:46;8.50;44.50
33903;DHT22;20194;50.950;5.346;2023-02-02T01:55:14;8.50;44.10
33903;DHT22;20194;50.950;5.346;2023-02-02T01:57:56;8.50;45.20
33903;DHT22;20194;50.950;5.346;2023-02-02T02:00:22;8.40;46.00
33903;DHT22;20194;50.950;5.346;2023-02-02T02:02:56;8.40;45.30
33903;DHT22;20194;50.950;5.346;2023-02-02T02:05:32;8.50;45.10
33903;DHT22;20194;50.950;5.346;2023-02-02T02:08:26;8.40;45.20
33903;DHT22;20194;50.950;5.346;2023-02-02T02:10:53;8.40;45.70
33903;DHT22;20194;50.950;5.346;2023-02-02T02:13:21;8.40;46.40
33903;DHT22;20194;50.950;5.346;2023-02-02T02:15:58;8.40;46.10
33903;DHT22;20194;50.950;5.346;2023-02-02T02:33:50;8.40;46.30
33903;DHT22;20194;50.950;5.346;2023-02-02T02:36:21;8.40;46.80
33903;DHT22;20194;50.950;5.346;2023-02-02T02:39:15;8.50;45.60
33903;DHT22;20194;50.950;5.346;2023-02-02T02:41:49;8.40;46.10
33903;DHT22;20194;50.950;5.346;2023-02-02T02:44:16;8.50;46.10
33903;DHT22;20194;50.950;5.346;2023-02-02T02:46:43;8.50;45.30
33903;DHT22;20194;50.950;5.346;2023-02-02T02:49:11;8.50;46.00
33903;DHT22;20194;50.950;5.346;2023-02-02T02:54:32;8.50;46.10
33903;DHT22;20194;50.950;5.346;2023-02-02T03:02:43;8.50;45.80
33903;DHT22;20194;50.950;5.346;2023-02-02T03:05:22;8.50;46.40
33903;DHT22;20194;50.950;5.346;2023-02-02T03:10:30;8.50;45.50
33903;DHT22;20194;50.950;5.346;2023-02-02T03:12:56;8.50;46.20
33903;DHT22;20194;50.950;5.346;2023-02-02T03:15:22;8.50;45.10
33903;DHT22;20194;50.950;5.346;2023-02-02T03:17:49;8.50;45.10
33903;DHT22;20194;50.950;5.346;2023-02-02T03:20:17;8.50;45.70
33903;DHT22;20194;50.950;5.346;2023-02-02T03:22:43;8.60;45.40
33903;DHT22;20194;50.950;5.346;2023-02-02T03:25:09;8.50;45.00
33903;DHT22;20194;50.950;5.346;2023-02-02T03:27:38;8.50;45.50
33903;DHT22;20194;50.950;5.346;2023-02-02T03:30:06;8.50;45.40
33903;DHT22;20194;50.950;5.346;2023-02-02T03:32:33;8.40;46.00
33903;DHT22;20194;50.950;5.346;2023-02-02T03:34:58;8.50;46.00
33903;DHT22;20194;50.950;5.346;2023-02-02T03:37:25;8.50;45.50
33903;DHT22;20194;50.950;5.346;2023-02-02T03:39:51;8.50;45.80
33903;DHT22;20194;50.950;5.346;2023-02-02T03:42:17;8.40;46.00
33903;DHT22;20194;50.950;5.346;2023-02-02T03:44:43;8.50;45.20
33903;DHT22;20194;50.950;5.346;2023-02-02T03:47:08;8.50;44.20
33903;DHT22;20194;50.950;5.346;2023-02-02T03:49:34;8.50;44.50
33903;DHT22;20194;50.950;5.346;2023-02-02T03:52:00;8.50;45.10
33903;DHT22;20194;50.950;5.346;2023-02-02T03:54:28;8.40;45.50
33903;DHT22;20194;50.950;5.346;2023-02-02T03:56:54;8.50;46.00
33903;DHT22;20194;50.950;5.346;2023-02-02T03:59:19;8.50;45.60
33903;DHT22;20194;50.950;5.346;2023-02-02T04:01:45;8.50;45.70
33903;DHT22;20194;50.950;5.346;2023-02-02T04:04:11;8.40;46.60
33903;DHT22;20194;50.950;5.346;2023-02-02T04:06:37;8.40;47.00
33903;DHT22;20194;50.950;5.346;2023-02-02T04:09:02;8.40;46.50
33903;DHT22;20194;50.950;5.346;2023-02-02T04:11:28;8.40;46.20
33903;DHT22;20194;50.950;5.346;2023-02-02T04:13:54;8.50;46.80
33903;DHT22;20194;50.950;5.346;2023-02-02T04:16:20;8.50;45.70
33903;DHT22;20194;50.950;5.346;2023-02-02T04:18:46;8.50;45.40
33903;DHT22;20194;50.950;5.346;2023-02-02T04:21:12;8.40;46.30
33903;DHT22;20194;50.950;5.346;2023-02-02T04:23:38;8.50;46.50
33903;DHT22;20194;50.950;5.346;2023-02-02T04:26:04;8.50;48.20
33903;DHT22;20194;50.950;5.346;2023-02-02T04:28:30;8.30;50.30
33903;DHT22;20194;50.950;5.346;2023-02-02T04:30:56;8.30;51.00
33903;DHT22;20194;50.950;5.346;2023-02-02T04:33:23;8.30;51.60
33903;DHT22;20194;50.950;5.346;2023-02-02T04:35:50;8.30;51.60
33903;DHT22;20194;50.950;5.346;2023-02-02T04:38:15;8.30;50.60
33903;DHT22;20194;50.950;5.346;2023-02-02T04:40:43;8.30;51.00
33903;DHT22;20194;50.950;5.346;2023-02-02T04:43:09;8.30;51.40
33903;DHT22;20194;50.950;5.346;2023-02-02T04:45:36;8.30;52.20
33903;DHT22;20194;50.950;5.346;2023-02-02T04:48:03;8.30;53.00
33903;DHT22;20194;50.950;5.346;2023-02-02T04:50:29;8.20;54.30
33903;DHT22;20194;50.950;5.346;2023-02-02T04:52:55;8.20;54.60
33903;DHT22;20194;50.950;5.346;2023-02-02T04:55:21;8.20;53.90
33903;DHT22;20194;50.950;5.346;2023-02-02T04:57:47;8.20;54.60
33903;DHT22;20194;50.950;5.346;2023-02-02T05:00:14;8.30;53.90
33903;DHT22;20194;50.950;5.346;2023-02-02T05:02:41;8.20;54.20
33903;DHT22;20194;50.950;5.346;2023-02-02T05:05:10;8.20;53.80
33903;DHT22;20194;50.950;5.346;2023-02-02T05:07:36;8.20;53.60
33903;DHT22;20194;50.950;5.346;2023-02-02T05:10:05;8.20;53.90
33903;DHT22;20194;50.950;5.346;2023-02-02T05:12:31;8.20;53.40
33903;DHT22;20194;50.950;5.346;2023-02-02T05:14:57;8.20;52.90
33903;DHT22;20194;50.950;5.346;2023-02-02T05:17:25;8.20;52.80
33903;DHT22;20194;50.950;5.346;2023-02-02T05:19:51;8.20;51.70
33903;DHT22;20194;50.950;5.346;2023-02-02T05:22:17;8.20;52.10
33903;DHT22;20194;50.950;5.346;2023-02-02T05:24:42;8.30;50.90
33903;DHT22;20194;50.950;5.346;2023-02-02T05:27:09;8.30;51.10
33903;DHT22;20194;50.950;5.346;2023-02-02T05:29:34;8.30;51.00
33903;DHT22;20194;50.950;5.346;2023-02-02T05:32:00;8.30;50.50
33903;DHT22;20194;50.950;5.346;2023-02-02T05:34:25;8.30;50.50
33903;DHT22;20194;50.950;5.346;2023-02-02T05:36:51;8.30;50.00
33903;DHT22;20194;50.950;5.346;2023-02-02T05:39:18;8.30;50.20
33903;DHT22;20194;50.950;5.346;2023-02-02T05:41:46;8.30;50.60
33903;DHT22;20194;50.950;5.346;2023-02-02T05:44:14;8.30;49.90
33903;DHT22;20194;50.950;5.346;2023-02-02T05:46:39;8.30;49.20
33903;DHT22;20194;50.950;5.346;2023-02-02T05:49:06;8.30;49.40
33903;DHT22;20194;50.950;5.346;2023-02-02T05:51:39;8.30;48.90
33903;DHT22;20194;50.950;5.346;2023-02-02T05:54:06;8.30;49.50
33903;DHT22;20194;50.950;5.346;2023-02-02T05:56:31;8.30;48.40
33903;DHT22;20194;50.950;5.346;2023-02-02T05:58:57;8.30;48.30
33903;DHT22;20194;50.950;5.346;2023-02-02T06:01:24;8.30;48.20
33903;DHT22;20194;50.950;5.346;2023-02-02T06:03:50;8.40;48.10
33903;DHT22;20194;50.950;5.346;2023-02-02T06:06:16;8.40;47.60
33903;DHT22;20194;50.950;5.346;2023-02-02T06:08:42;8.40;47.40
33903;DHT22;20194;50.950;5.346;2023-02-02T06:11:12;8.40;47.50
33903;DHT22;20194;50.950;5.346;2023-02-02T06:13:38;8.40;47.20
33903;DHT22;20194;50.950;5.346;2023-02-02T06:16:05;8.40;47.50
33903;DHT22;20194;50.950;5.346;2023-02-02T06:18:30;8.30;47.40
33903;DHT22;20194;50.950;5.346;2023-02-02T06:21:01;8.30;48.00
33903;DHT22;20194;50.950;5.346;2023-02-02T06:23:27;8.30;48.40
33903;DHT22;20194;50.950;5.346;2023-02-02T06:25:53;8.40;48.70
33903;DHT22;20194;50.950;5.346;2023-02-02T06:28:18;8.40;47.40
33903;DHT22;20194;50.950;5.346;2023-02-02T06:30:44;8.50;46.20
33903;DHT22;20194;50.950;5.346;2023-02-02T06:33:10;8.50;46.40
33903;DHT22;20194;50.950;5.346;2023-02-02T06:35:36;8.50;45.50
33903;DHT22;20194;50.950;5.346;2023-02-02T06:38:02;8.50;45.60
33903;DHT22;20194;50.950;5.346;2023-02-02T06:40:28;8.40;46.00
33903;DHT22;20194;50.950;5.346;2023-02-02T06:43:01;8.50;46.00
33903;DHT22;20194;50.950;5.346;2023-02-02T06:45:28;8.50;45.40
33903;DHT22;20194;50.950;5.346;2023-02-02T06:47:58;8.40;46.00
33903;DHT22;20194;50.950;5.346;2023-02-02T06:50:26;8.50;46.60
33903;DHT22;20194;50.950;5.346;2023-02-02T06:52:52;8.50;46.50
33903;DHT22;20194;50.950;5.346;2023-02-02T06:55:18;8.50;45.50
33903;DHT22;20194;50.950;5.346;2023-02-02T06:57:45;8.50;47.20
33903;DHT22;20194;50.950;5.346;2023-02-02T07:00:12;8.50;46.40
33903;DHT22;20194;50.950;5.346;2023-02-02T07:02:38;8.50;46.60
33903;DHT22;20194;50.950;5.346;2023-02-02T07:05:04;8.50;46.90
33903;DHT22;20194;50.950;5.346;2023-02-02T07:07:34;8.50;47.20
33903;DHT22;20194;50.950;5.346;2023-02-02T07:10:00;8.50;47.90
33903;DHT22;20194;50.950;5.346;2023-02-02T07:12:26;8.50;47.50
33903;DHT22;20194;50.950;5.346;2023-02-02T07:14:52;8.50;48.30
33903;DHT22;20194;50.950;5.346;2023-02-02T07:17:18;8.40;49.30
33903;DHT22;20194;50.950;5.346;2023-02-02T07:19:44;8.40;50.40
33903;DHT22;20194;50.950;5.346;2023-02-02T07:22:10;8.40;50.70
33903;DHT22;20194;50.950;5.346;2023-02-02T07:24:36;8.30;51.10
33903;DHT22;20194;50.950;5.346;2023-02-02T07:27:05;8.40;51.40
33903;DHT22;20194;50.950;5.346;2023-02-02T07:29:30;8.40;51.30
33903;DHT22;20194;50.950;5.346;2023-02-02T07:31:56;8.40;51.00
33903;DHT22;20194;50.950;5.346;2023-02-02T07:34:22;8.40;51.10
33903;DHT22;20194;50.950;5.346;2023-02-02T07:36:48;8.30;51.90
33903;DHT22;20194;50.950;5.346;2023-02-02T07:39:14;8.30;52.90
33903;DHT22;20194;50.950;5.346;2023-02-02T07:41:40;8.30;53.70
33903;DHT22;20194;50.950;5.346;2023-02-02T07:44:12;8.20;54.50
33903;DHT22;20194;50.950;5.346;2023-02-02T07:46:43;8.20;54.70
33903;DHT22;20194;50.950;5.346;2023-02-02T07:49:14;8.20;55.60
33903;DHT22;20194;50.950;5.346;2023-02-02T07:51:40;8.20;56.70
33903;DHT22;20194;50.950;5.346;2023-02-02T07:54:06;8.20;55.90
33903;DHT22;20194;50.950;5.346;2023-02-02T07:56:32;8.30;55.40
33903;DHT22;20194;50.950;5.346;2023-02-02T07:58:58;8.30;55.20
33903;DHT22;20194;50.950;5.346;2023-02-02T08:01:24;8.20;55.60
33903;DHT22;20194;50.950;5.346;2023-02-02T08:03:52;8.20;56.60
33903;DHT22;20194;50.950;5.346;2023-02-02T08:06:20;8.30;56.00
33903;DHT22;20194;50.950;5.346;2023-02-02T08:08:47;8.30;56.40
33903;DHT22;20194;50.950;5.346;2023-02-02T08:11:15;8.30;57.90
33903;DHT22;20194;50.950;5.346;2023-02-02T08:13:42;8.10;59.20
33903;DHT22;20194;50.950;5.346;2023-02-02T08:16:09;8.00;61.80
33903;DHT22;20194;50.950;5.346;2023-02-02T08:18:36;8.00;63.40
33903;DHT22;20194;50.950;5.346;2023-02-02T08:21:04;7.90;64.90
33903;DHT22;20194;50.950;5.346;2023-02-02T08:23:30;7.90;65.60
33903;DHT22;20194;50.950;5.346;2023-02-02T08:26:12;8.00;65.70
33903;DHT22;20194;50.950;5.346;2023-02-02T08:28:39;8.00;64.00
33903;DHT22;20194;50.950;5.346;2023-02-02T08:31:07;8.00;65.20
33903;DHT22;20194;50.950;5.346;2023-02-02T08:33:33;8.00;65.30
33903;DHT22;20194;50.950;5.346;2023-02-02T08:35:59;8.00;65.20
33903;DHT22;20194;50.950;5.346;2023-02-02T08:38:25;8.00;65.40
33903;DHT22;20194;50.950;5.346;2023-02-02T08:40:51;8.00;65.30
33903;DHT22;20194;50.950;5.346;2023-02-02T08:43:17;8.00;64.80
33903;DHT22;20194;50.950;5.346;2023-02-02T08:45:43;8.00;63.40
33903;DHT22;20194;50.950;5.346;2023-02-02T08:48:09;8.10;62.30
33903;DHT22;20194;50.950;5.346;2023-02-02T08:50:35;8.10;61.90
33903;DHT22;20194;50.950;5.346;2023-02-02T08:53:00;8.10;61.70
33903;DHT22;20194;50.950;5.346;2023-02-02T08:55:26;8.20;60.90
33903;DHT22;20194;50.950;5.346;2023-02-02T08:57:51;8.10;59.60
33903;DHT22;20194;50.950;5.346;2023-02-02T09:00:18;8.20;59.00
33903;DHT22;20194;50.950;5.346;2023-02-02T09:02:44;8.20;58.90
33903;DHT22;20194;50.950;5.346;2023-02-02T09:05:10;8.20;58.50
33903;DHT22;20194;50.950;5.346;2023-02-02T09:07:35;8.30;58.10
33903;DHT22;20194;50.950;5.346;2023-02-02T09:10:01;8.30;57.80
33903;DHT22;20194;50.950;5.346;2023-02-02T09:12:27;8.30;56.80
33903;DHT22;20194;50.950;5.346;2023-02-02T09:14:52;8.30;57.00
33903;DHT22;20194;50.950;5.346;2023-02-02T09:17:18;8.30;56.60
33903;DHT22;20194;50.950;5.346;2023-02-02T09:19:44;8.40;56.90
33903;DHT22;20194;50.950;5.346;2023-02-02T09:22:09;8.50;55.10
33903;DHT22;20194;50.950;5.346;2023-02-02T09:24:35;8.50;54.70
33903;DHT22;20194;50.950;5.346;2023-02-02T09:27:01;8.60;55.10
33903;DHT22;20194;50.950;5.346;2023-02-02T09:29:27;8.50;53.20
33903;DHT22;20194;50.950;5.346;2023-02-02T09:31:53;8.50;53.30
33903;DHT22;20194;50.950;5.346;2023-02-02T09:34:18;8.60;53.20
33903;DHT22;20194;50.950;5.346;2023-02-02T09:36:44;8.60;51.80
33903;DHT22;20194;50.950;5.346;2023-02-02T09:39:12;8.60;52.40
33903;DHT22;20194;50.950;5.346;2023-02-02T09:49:50;8.70;50.40
33903;DHT22;20194;50.950;5.346;2023-02-02T09:52:17;8.80;50.30
33903;DHT22;20194;50.950;5.346;2023-02-02T09:54:49;8.80;48.80
33903;DHT22;20194;50.950;5.346;2023-02-02T09:57:23;8.80;47.20
33903;DHT22;20194;50.950;5.346;2023-02-02T09:59:51;8.90;46.80
33903;DHT22;20194;50.950;5.346;2023-02-02T10:02:26;8.90;46.50
33903;DHT22;20194;50.950;5.346;2023-02-02T10:05:04;8.90;45.70
33903;DHT22;20194;50.950;5.346;2023-02-02T10:07:35;8.90;44.90
33903;DHT22;20194;50.950;5.346;2023-02-02T10:10:03;9.00;44.90
33903;DHT22;20194;50.950;5.346;2023-02-02T10:15:13;8.90;43.40
33903;DHT22;20194;50.950;5.346;2023-02-02T10:18:07;9.00;42.60
33903;DHT22;20194;50.950;5.346;2023-02-02T10:29:15;9.10;41.50
33903;DHT22;20194;50.950;5.346;2023-02-02T10:34:32;9.10;39.40
33903;DHT22;20194;50.950;5.346;2023-02-02T10:45:35;9.20;39.00
33903;DHT22;20194;50.950;5.346;2023-02-02T10:48:14;9.20;38.10
33903;DHT22;20194;50.950;5.346;2023-02-02T10:50:48;9.20;39.10
33903;DHT22;20194;50.950;5.346;2023-02-02T10:53:15;9.30;38.30
33903;DHT22;20194;50.950;5.346;2023-02-02T10:55:47;9.40;38.30
33903;DHT22;20194;50.950;5.346;2023-02-02T11:00:56;9.50;36.20
33903;DHT22;20194;50.950;5.346;2023-02-02T11:03:27;9.60;33.70
33903;DHT22;20194;50.950;5.346;2023-02-02T11:05:53;9.60;33.30
33903;DHT22;20194;50.950;5.346;2023-02-02T11:08:44;9.60;33.80
33903;DHT22;20194;50.950;5.346;2023-02-02T11:11:26;9.60;30.70
33903;DHT22;20194;50.950;5.346;2023-02-02T11:13:55;9.60;32.50
33903;DHT22;20194;50.950;5.346;2023-02-02T11:16:25;9.70;32.70
33903;DHT22;20194;50.950;5.346;2023-02-02T11:18:52;9.60;32.10
33903;DHT22;20194;50.950;5.346;2023-02-02T11:21:21;9.60;32.70
33903;DHT22;20194;50.950;5.346;2023-02-02T11:24:26;9.60;31.60
33903;DHT22;20194;50.950;5.346;2023-02-02T11:27:06;9.60;29.80
33903;DHT22;20194;50.950;5.346;2023-02-02T11:37:35;9.70;31.20
33903;DHT22;20194;50.950;5.346;2023-02-02T11:42:56;9.80;29.30
33903;DHT22;20194;50.950;5.346;2023-02-02T11:45:34;9.90;28.40
33903;DHT22;20194;50.950;5.346;2023-02-02T11:48:03;9.90;29.40
33903;DHT22;20194;50.950;5.346;2023-02-02T11:50:29;9.90;29.80
33903;DHT22;20194;50.950;5.346;2023-02-02T11:52:56;10.00;27.80
33903;DHT22;20194;50.950;5.346;2023-02-02T11:55:28;10.20;27.20
33903;DHT22;20194;50.950;5.346;2023-02-02T11:58:28;10.30;25.10
33903;DHT22;20194;50.950;5.346;2023-02-02T12:01:01;10.30;24.70
33903;DHT22;20194;50.950;5.346;2023-02-02T12:03:36;10.30;23.40
33903;DHT22;20194;50.950;5.346;2023-02-02T12:06:26;10.20;23.60
33903;DHT22;20194;50.950;5.346;2023-02-02T12:09:00;10.20;22.20
33903;DHT22;20194;50.950;5.346;2023-02-02T12:14:42;10.40;21.50
33903;DHT22;20194;50.950;5.346;2023-02-02T12:23:03;10.30;21.80
33903;DHT22;20194;50.950;5.346;2023-02-02T12:31:03;10.30;20.40
33903;DHT22;20194;50.950;5.346;2023-02-02T12:52:54;10.90;18.20
33903;DHT22;20194;50.950;5.346;2023-02-02T12:55:41;10.90;13.20
33903;DHT22;20194;50.950;5.346;2023-02-02T13:01:06;10.80;13.80
33903;DHT22;20194;50.950;5.346;2023-02-02T13:09:09;10.80;14.90
33903;DHT22;20194;50.950;5.346;2023-02-02T13:11:56;10.80;16.60
33903;DHT22;20194;50.950;5.346;2023-02-02T13:20:03;10.70;13.20
33903;DHT22;20194;50.950;5.346;2023-02-02T13:22:37;10.70;14.40
33903;DHT22;20194;50.950;5.346;2023-02-02T13:25:12;10.80;15.30
33903;DHT22;20194;50.950;5.346;2023-02-02T13:27:40;10.80;15.00
33903;DHT22;20194;50.950;5.346;2023-02-02T13:30:27;10.80;15.60
33903;DHT22;20194;50.950;5.346;2023-02-02T13:33:00;10.80;13.90
33903;DHT22;20194;50.950;5.346;2023-02-02T13:40:41;11.10;8.60
33903;DHT22;20194;50.950;5.346;2023-02-02T13:48:24;11.50;7.10
33903;DHT22;20194;50.950;5.346;2023-02-02T14:01:51;11.20;8.00
33903;DHT22;20194;50.950;5.346;2023-02-02T14:04:29;11.10;8.90
33903;DHT22;20194;50.950;5.346;2023-02-02T14:07:01;11.00;14.90
33903;DHT22;20194;50.950;5.346;2023-02-02T14:09:32;11.00;16.70
33903;DHT22;20194;50.950;5.346;2023-02-02T14:12:04;11.00;17.60
33903;DHT22;20194;50.950;5.346;2023-02-02T14:14:32;11.00;19.30
33903;DHT22;20194;50.950;5.346;2023-02-02T14:17:49;11.00;17.50
33903;DHT22;20194;50.950;5.346;2023-02-02T14:19:57;11.00;16.80
33903;DHT22;20194;50.950;5.346;2023-02-02T14:22:44;11.00;15.00
33903;DHT22;20194;50.950;5.346;2023-02-02T14:28:10;10.90;16.40
33903;DHT22;20194;50.950;5.346;2023-02-02T14:30:37;10.90;19.40
33903;DHT22;20194;50.950;5.346;2023-02-02T14:33:47;10.80;19.40
33903;DHT22;20194;50.950;5.346;2023-02-02T14:36:14;10.80;19.90
33903;DHT22;20194;50.950;5.346;2023-02-02T14:39:18;10.70;20.10
33903;DHT22;20194;50.950;5.346;2023-02-02T14:47:52;10.80;18.00
33903;DHT22;20194;50.950;5.346;2023-02-02T15:04:16;10.70;20.60
33903;DHT22;20194;50.950;5.346;2023-02-02T15:06:42;10.70;21.30
33903;DHT22;20194;50.950;5.346;2023-02-02T15:14:54;10.60;23.20
33903;DHT22;20194;50.950;5.346;2023-02-02T15:25:25;10.50;25.90
33903;DHT22;20194;50.950;5.346;2023-02-02T15:28:16;10.50;26.60
33903;DHT22;20194;50.950;5.346;2023-02-02T15:30:48;10.50;27.40
33903;DHT22;20194;50.950;5.346;2023-02-02T15:33:38;10.50;28.00
33903;DHT22;20194;50.950;5.346;2023-02-02T15:36:26;10.50;28.30
33903;DHT22;20194;50.950;5.346;2023-02-02T15:38:58;10.50;29.50
33903;DHT22;20194;50.950;5.346;2023-02-02T15:41:33;10.50;30.50
33903;DHT22;20194;50.950;5.346;2023-02-02T15:44:20;10.40;30.90
33903;DHT22;20194;50.950;5.346;2023-02-02T15:46:47;10.40;32.30
33903;DHT22;20194;50.950;5.346;2023-02-02T15:51:52;10.50;32.30
33903;DHT22;20194;50.950;5.346;2023-02-02T15:54:28;10.50;32.90
33903;DHT22;20194;50.950;5.346;2023-02-02T15:56:56;10.50;32.00
33903;DHT22;20194;50.950;5.346;2023-02-02T15:59:27;10.40;34.20
33903;DHT22;20194;50.950;5.346;2023-02-02T16:04:38;10.30;37.50
33903;DHT22;20194;50.950;5.346;2023-02-02T16:07:08;10.30;37.90
33903;DHT22;20194;50.950;5.346;2023-02-02T16:09:37;10.30;38.10
33903;DHT22;20194;50.950;5.346;2023-02-02T16:12:18;10.30;37.60
33903;DHT22;20194;50.950;5.346;2023-02-02T16:14:47;10.30;38.80
33903;DHT22;20194;50.950;5.346;2023-02-02T16:17:26;10.20;39.80
33903;DHT22;20194;50.950;5.346;2023-02-02T16:20:14;10.30;40.30
33903;DHT22;20194;50.950;5.346;2023-02-02T16:22:40;10.20;40.60
33903;DHT22;20194;50.950;5.346;2023-02-02T16:25:11;10.20;41.70
33903;DHT22;20194;50.950;5.346;2023-02-02T16:27:41;10.20;42.30
33903;DHT22;20194;50.950;5.346;2023-02-02T16:32:52;10.20;43.30
33903;DHT22;20194;50.950;5.346;2023-02-02T16:35:43;10.10;44.20
33903;DHT22;20194;50.950;5.346;2023-02-02T16:38:31;10.10;44.00
33903;DHT22;20194;50.950;5.346;2023-02-02T16:47:01;10.10;45.00
33903;DHT22;20194;50.950;5.346;2023-02-02T16:49:27;10.10;44.70
33903;DHT22;20194;50.950;5.346;2023-02-02T16:52:17;10.10;44.80
33903;DHT22;20194;50.950;5.346;2023-02-02T16:54:55;10.20;44.10
33903;DHT22;20194;50.950;5.346;2023-02-02T16:57:30;10.10;45.40
33903;DHT22;20194;50.950;5.346;2023-02-02T17:00:05;10.10;44.70
33903;DHT22;20194;50.950;5.346;2023-02-02T17:02:35;10.10;44.50
33903;DHT22;20194;50.950;5.346;2023-02-02T17:05:15;10.10;45.50
33903;DHT22;20194;50.950;5.346;2023-02-02T17:07:56;10.10;44.90
33903;DHT22;20194;50.950;5.346;2023-02-02T17:10:27;10.20;44.70
33903;DHT22;20194;50.950;5.346;2023-02-02T17:12:56;10.20;44.50
33903;DHT22;20194;50.950;5.346;2023-02-02T17:15:33;10.20;43.70
33903;DHT22;20194;50.950;5.346;2023-02-02T17:18:00;10.30;43.30
33903;DHT22;20194;50.950;5.346;2023-02-02T17:20:26;10.20;45.00
33903;DHT22;20194;50.950;5.346;2023-02-02T17:23:01;10.20;43.90
33903;DHT22;20194;50.950;5.346;2023-02-02T17:25:34;10.20;44.30
33903;DHT22;20194;50.950;5.346;2023-02-02T17:28:02;10.20;44.70
33903;DHT22;20194;50.950;5.346;2023-02-02T17:30:30;10.10;44.20
33903;DHT22;20194;50.950;5.346;2023-02-02T17:32:56;10.10;45.30
33903;DHT22;20194;50.950;5.346;2023-02-02T17:35:24;10.10;45.30
33903;DHT22;20194;50.950;5.346;2023-02-02T17:37:51;10.10;44.90
33903;DHT22;20194;50.950;5.346;2023-02-02T17:40:19;10.10;44.90
33903;DHT22;20194;50.950;5.346;2023-02-02T17:42:48;10.10;45.00
33903;DHT22;20194;50.950;5.346;2023-02-02T17:45:20;10.10;45.00
33903;DHT22;20194;50.950;5.346;2023-02-02T17:47:47;10.10;46.60
33903;DHT22;20194;50.950;5.346;2023-02-02T17:50:14;10.00;45.30
33903;DHT22;20194;50.950;5.346;2023-02-02T17:52:39;10.00;47.00
33903;DHT22;20194;50.950;5.346;2023-02-02T17:55:22;9.90;47.20
33903;DHT22;20194;50.950;5.346;2023-02-02T17:57:48;9.90;47.30
33903;DHT22;20194;50.950;5.346;2023-02-02T18:00:16;9.90;48.30
33903;DHT22;20194;50.950;5.346;2023-02-02T18:02:42;9.90;48.50
33903;DHT22;20194;50.950;5.346;2023-02-02T18:05:08;9.90;48.10
33903;DHT22;20194;50.950;5.346;2023-02-02T18:07:35;9.90;48.80
33903;DHT22;20194;50.950;5.346;2023-02-02T18:10:03;9.90;48.10
33903;DHT22;20194;50.950;5.346;2023-02-02T18:12:28;9.80;48.10
33903;DHT22;20194;50.950;5.346;2023-02-02T18:14:54;9.80;48.30
33903;DHT22;20194;50.950;5.346;2023-02-02T18:17:20;9.80;48.20
33903;DHT22;20194;50.950;5.346;2023-02-02T18:19:46;9.80;49.00
33903;DHT22;20194;50.950;5.346;2023-02-02T18:22:16;9.70;49.90
33903;DHT22;20194;50.950;5.346;2023-02-02T18:24:41;9.80;49.00
33903;DHT22;20194;50.950;5.346;2023-02-02T18:27:07;9.90;48.20
33903;DHT22;20194;50.950;5.346;2023-02-02T18:29:34;9.80;48.20
33903;DHT22;20194;50.950;5.346;2023-02-02T18:32:00;9.90;48.10
33903;DHT22;20194;50.950;5.346;2023-02-02T18:34:30;9.90;47.60
33903;DHT22;20194;50.950;5.346;2023-02-02T18:36:56;9.90;48.10
33903;DHT22;20194;50.950;5.346;2023-02-02T18:39:22;9.90;48.60
33903;DHT22;20194;50.950;5.346;2023-02-02T18:41:48;9.90;49.00
33903;DHT22;20194;50.950;5.346;2023-02-02T18:44:13;9.90;49.40
33903;DHT22;20194;50.950;5.346;2023-02-02T18:46:40;9.90;49.90
33903;DHT22;20194;50.950;5.346;2023-02-02T18:49:06;10.00;49.10
33903;DHT22;20194;50.950;5.346;2023-02-02T18:51:31;10.00;49.00
33903;DHT22;20194;50.950;5.346;2023-02-02T18:53:57;10.00;48.40
33903;DHT22;20194;50.950;5.346;2023-02-02T18:56:27;10.10;47.60
33903;DHT22;20194;50.950;5.346;2023-02-02T18:58:54;10.00;47.70
33903;DHT22;20194;50.950;5.346;2023-02-02T19:01:20;9.90;48.90
33903;DHT22;20194;50.950;5.346;2023-02-02T19:03:52;9.80;49.00
33903;DHT22;20194;50.950;5.346;2023-02-02T19:06:19;9.80;50.30
33903;DHT22;20194;50.950;5.346;2023-02-02T19:09:04;9.80;50.90
33903;DHT22;20194;50.950;5.346;2023-02-02T19:11:41;9.80;50.60